Archival Weather

Norman Y Mineta San Jose Intl

San Jose, California (KSJC)

Report from: Wednesday, January 31, 2024 9:53 AM PST
Current time: Monday, June 24, 2024 4:09 AM PDT

Current weather – Weather history – Daily summaries
Weather forecast

Temperature17.2°C (63.0°F)
Dew point6.1°C (43.0°F)
Winds 11 kts (5.7 m/s, 12.7 mph) South (170°)
Wind gusts 21 kts (10.8 m/s, 24.2 mph)
Peak wind 28 kts (14.4 m/s, 32.2 mph) South (180°) at 17:35
Visibility10 mi. (16.1 km)
Clouds Few clouds 1,800 ft. (549 m)
Ceiling: Broken clouds 8,000 ft. (2,438 m)
Overcast 12,000 ft. (3,658 m)
Altimeter29.79 in.Hg (1009 mB)
Relative humidity48 %
Density altitude554 ft. (169 m)
Sea-level pressure100.9 kPa (1009 mB, 29.78 in.Hg)
Max temp last 6 hours17.8°C (64.0°F)
Min temp last 6 hours14.4°C (57.9°F)
Remarks Automated weather observing station with precipitation discriminator
Virga observed distant southeast
Pressure falling more slowly
Flight conditions Visual Meteorological Conditions
Raw dataKSJC 311753Z 17011G21KT 10SM FEW018 BKN080 OVC120 17/06 A2979 RMK AO2 PK WND 18028/1735 SLP086 VIRGA DSNT SE T01720061 10178 20144 56013
An error has occurred. This application may no longer respond until reloaded. Reload 🗙